Time;durP1;ratioP1;P1;durP2;ratioP2;P2;SDS_P1;SDS_P2;PMS_P1;PMS_P2;Temp;Humidity;BMP_temperature;BMP_pressure;BME280_temperature;BME280_humidity;BME280_pressure;Samples;Min_cycle;Max_cycle;Signal;HPM_P1;HPM_P2
2021/03/08 00:01:01;;;;;;;19.67;13.73;;;5.5;99.1;;;;;;;;;
2021/03/08 00:02:01;;;;;;;20.23;13.37;;;5.5;99.5;;;;;;;;;
2021/03/08 00:03:01;;;;;;;19.47;13.23;;;5.5;99.5;;;;;;;;;
2021/03/08 00:03:12;;;;;;;19.47;13.23;;;5.5;99.5;;;;;;;;;
2021/03/08 00:04:01;;;;;;;25.43;13.77;;;5.6;99.5;;;;;;;;;
2021/03/08 00:04:13;;;;;;;25.43;13.77;;;5.6;99.5;;;;;;;;;
2021/03/08 00:05:01;;;;;;;22.1;13.67;;;5.6;99.5;;;;;;;;;
2021/03/08 00:05:15;;;;;;;22.1;13.67;;;5.6;99.5;;;;;;;;;
2021/03/08 00:05:25;;;;;;;20.03;13.37;;;5.5;99.6;;;;;;;;;
2021/03/08 00:06:01;;;;;;;20.03;13.37;;;5.5;99.6;;;;;;;;;
2021/03/08 00:06:16;;;;;;;20.03;13.37;;;5.5;99.6;;;;;;;;;
2021/03/08 00:06:26;;;;;;;25.7;14.6;;;5.5;99.7;;;;;;;;;
2021/03/08 00:07:01;;;;;;;25.7;14.6;;;5.5;99.7;;;;;;;;;
2021/03/08 00:07:12;;;;;;;25.7;14.6;;;5.5;99.7;;;;;;;;;
2021/03/08 00:07:28;;;;;;;21.7;13.2;;;5.5;99.8;;;;;;;;;
2021/03/08 00:07:38;;;;;;;21.7;13.2;;;5.5;99.8;;;;;;;;;
2021/03/08 00:08:01;;;;;;;21.7;13.2;;;5.5;99.8;;;;;;;;;
2021/03/08 00:08:14;;;;;;;21.7;13.2;;;5.5;99.8;;;;;;;;;
2021/03/08 00:08:29;;;;;;;20.73;14.03;;;5.5;99.8;;;;;;;;;
2021/03/08 00:08:39;;;;;;;20.73;14.03;;;5.5;99.8;;;;;;;;;
2021/03/08 00:09:01;;;;;;;20.73;14.03;;;5.5;99.8;;;;;;;;;
2021/03/08 00:09:15;;;;;;;20.73;14.03;;;5.5;99.8;;;;;;;;;
2021/03/08 00:09:26;;;;;;;20.23;13.77;;;5.5;99.9;;;;;;;;;
2021/03/08 00:09:41;;;;;;;20.23;13.77;;;5.5;99.9;;;;;;;;;
2021/03/08 00:09:51;;;;;;;20.23;13.77;;;5.5;99.9;;;;;;;;;
2021/03/08 00:10:01;;;;;;;20.23;13.77;;;5.5;99.9;;;;;;;;;
2021/03/08 00:10:12;;;;;;;20.23;13.77;;;5.5;99.9;;;;;;;;;
2021/03/08 00:10:27;;;;;;;19.57;14.23;;;5.6;99.8;;;;;;;;;
2021/03/08 00:10:42;;;;;;;19.57;14.23;;;5.6;99.8;;;;;;;;;
2021/03/08 00:10:53;;;;;;;19.57;14.23;;;5.6;99.8;;;;;;;;;
2021/03/08 00:11:01;;;;;;;19.57;14.23;;;5.6;99.8;;;;;;;;;
2021/03/08 00:11:13;;;;;;;19.57;14.23;;;5.6;99.8;;;;;;;;;
2021/03/08 00:11:28;;;;;;;20.33;13.67;;;5.6;99.7;;;;;;;;;
2021/03/08 00:11:39;;;;;;;20.33;13.67;;;5.6;99.7;;;;;;;;;
2021/03/08 00:11:54;;;;;;;20.33;13.67;;;5.6;99.7;;;;;;;;;
2021/03/08 00:12:01;;;;;;;20.33;13.67;;;5.6;99.7;;;;;;;;;
2021/03/08 00:12:04;;;;;;;20.33;13.67;;;5.6;99.7;;;;;;;;;
2021/03/08 00:12:15;;;;;;;20.33;13.67;;;5.6;99.7;;;;;;;;;
2021/03/08 00:12:25;;;;;;;20.53;13.7;;;5.7;99.7;;;;;;;;;
2021/03/08 00:12:40;;;;;;;20.53;13.7;;;5.7;99.7;;;;;;;;;
2021/03/08 00:12:56;;;;;;;20.53;13.7;;;5.7;99.7;;;;;;;;;
2021/03/08 00:13:01;;;;;;;20.53;13.7;;;5.7;99.7;;;;;;;;;
2021/03/08 00:13:06;;;;;;;20.53;13.7;;;5.7;99.7;;;;;;;;;
2021/03/08 00:13:16;;;;;;;20.53;13.7;;;5.7;99.7;;;;;;;;;
2021/03/08 00:13:26;;;;;;;20.63;13.93;;;5.7;99.6;;;;;;;;;
2021/03/08 00:13:42;;;;;;;20.63;13.93;;;5.7;99.6;;;;;;;;;
2021/03/08 00:13:52;;;;;;;20.63;13.93;;;5.7;99.6;;;;;;;;;
2021/03/08 00:14:01;;;;;;;20.63;13.93;;;5.7;99.6;;;;;;;;;
2021/03/08 00:14:07;;;;;;;20.63;13.93;;;5.7;99.6;;;;;;;;;
2021/03/08 00:14:13;;;;;;;20.63;13.93;;;5.7;99.6;;;;;;;;;
2021/03/08 00:14:28;;;;;;;21.6;13.97;;;5.7;99.7;;;;;;;;;
2021/03/08 00:14:38;;;;;;;21.6;13.97;;;5.7;99.7;;;;;;;;;
2021/03/08 00:14:53;;;;;;;21.6;13.97;;;5.7;99.7;;;;;;;;;
2021/03/08 00:15:02;;;;;;;21.6;13.97;;;5.7;99.7;;;;;;;;;
2021/03/08 00:15:09;;;;;;;21.6;13.97;;;5.7;99.7;;;;;;;;;
2021/03/08 00:15:14;;;;;;;21.6;13.97;;;5.7;99.7;;;;;;;;;
2021/03/08 00:15:29;;;;;;;20.83;13.7;;;5.7;99.7;;;;;;;;;
2021/03/08 00:15:39;;;;;;;20.83;13.7;;;5.7;99.7;;;;;;;;;
2021/03/08 00:15:55;;;;;;;20.83;13.7;;;5.7;99.7;;;;;;;;;
2021/03/08 00:16:01;;;;;;;20.83;13.7;;;5.7;99.7;;;;;;;;;
2021/03/08 00:16:05;;;;;;;20.83;13.7;;;5.7;99.7;;;;;;;;;
2021/03/08 00:16:15;;;;;;;20.83;13.7;;;5.7;99.7;;;;;;;;;
2021/03/08 00:16:26;;;;;;;19.27;13.87;;;5.7;99.8;;;;;;;;;
2021/03/08 00:16:41;;;;;;;19.27;13.87;;;5.7;99.8;;;;;;;;;
2021/03/08 00:16:51;;;;;;;19.27;13.87;;;5.7;99.8;;;;;;;;;
2021/03/08 00:17:02;;;;;;;19.27;13.87;;;5.7;99.8;;;;;;;;;
2021/03/08 00:17:07;;;;;;;19.27;13.87;;;5.7;99.8;;;;;;;;;
2021/03/08 00:17:17;;;;;;;19.27;13.87;;;5.7;99.8;;;;;;;;;
2021/03/08 00:17:27;;;;;;;19.53;13.63;;;5.7;99.9;;;;;;;;;
2021/03/08 00:17:42;;;;;;;19.53;13.63;;;5.7;99.9;;;;;;;;;
2021/03/08 00:17:53;;;;;;;19.53;13.63;;;5.7;99.9;;;;;;;;;
2021/03/08 00:18:01;;;;;;;19.53;13.63;;;5.7;99.9;;;;;;;;;
2021/03/08 00:18:08;;;;;;;19.53;13.63;;;5.7;99.9;;;;;;;;;
2021/03/08 00:18:13;;;;;;;19.53;13.63;;;5.7;99.9;;;;;;;;;
2021/03/08 00:18:28;;;;;;;19.23;13.8;;;5.7;99.9;;;;;;;;;
2021/03/08 00:18:38;;;;;;;19.23;13.8;;;5.7;99.9;;;;;;;;;
2021/03/08 00:18:54;;;;;;;19.23;13.8;;;5.7;99.9;;;;;;;;;
2021/03/08 00:19:02;;;;;;;19.23;13.8;;;5.7;99.9;;;;;;;;;
2021/03/08 00:19:04;;;;;;;19.23;13.8;;;5.7;99.9;;;;;;;;;
2021/03/08 00:19:14;;;;;;;19.23;13.8;;;5.7;99.9;;;;;;;;;
2021/03/08 00:19:30;;;;;;;21.97;13.63;;;5.7;99.9;;;;;;;;;
2021/03/08 00:19:40;;;;;;;21.97;13.63;;;5.7;99.9;;;;;;;;;
2021/03/08 00:19:55;;;;;;;21.97;13.63;;;5.7;99.9;;;;;;;;;
2021/03/08 00:20:02;;;;;;;21.97;13.63;;;5.7;99.9;;;;;;;;;
2021/03/08 00:20:06;;;;;;;21.97;13.63;;;5.7;99.9;;;;;;;;;
2021/03/08 00:20:16;;;;;;;21.97;13.63;;;5.7;99.9;;;;;;;;;
2021/03/08 00:20:26;;;;;;;21.97;13.63;;;5.7;99.9;;;;;;;;;
2021/03/08 00:20:41;;;;;;;20.03;13.77;;;5.7;99.9;;;;;;;;;
2021/03/08 00:20:52;;;;;;;20.03;13.77;;;5.7;99.9;;;;;;;;;
2021/03/08 00:21:02;;;;;;;20.03;13.77;;;5.7;99.9;;;;;;;;;
2021/03/08 00:21:07;;;;;;;20.03;13.77;;;5.7;99.9;;;;;;;;;
2021/03/08 00:21:12;;;;;;;20.03;13.77;;;5.7;99.9;;;;;;;;;
2021/03/08 00:21:27;;;;;;;21.7;14.33;;;5.7;99.9;;;;;;;;;
2021/03/08 00:21:43;;;;;;;21.7;14.33;;;5.7;99.9;;;;;;;;;
2021/03/08 00:21:53;;;;;;;21.7;14.33;;;5.7;99.9;;;;;;;;;
2021/03/08 00:22:02;;;;;;;21.7;14.33;;;5.7;99.9;;;;;;;;;
2021/03/08 00:22:09;;;;;;;21.7;14.33;;;5.7;99.9;;;;;;;;;
2021/03/08 00:22:14;;;;;;;21.7;14.33;;;5.7;99.9;;;;;;;;;
2021/03/08 00:22:29;;;;;;;22.43;13.8;;;5.6;99.9;;;;;;;;;
2021/03/08 00:22:39;;;;;;;22.43;13.8;;;5.6;99.9;;;;;;;;;
2021/03/08 00:22:55;;;;;;;22.43;13.8;;;5.6;99.9;;;;;;;;;
2021/03/08 00:23:01;;;;;;;22.43;13.8;;;5.6;99.9;;;;;;;;;
2021/03/08 00:23:05;;;;;;;22.43;13.8;;;5.6;99.9;;;;;;;;;
2021/03/08 00:23:15;;;;;;;22.43;13.8;;;5.6;99.9;;;;;;;;;
2021/03/08 00:23:25;;;;;;;22.43;13.8;;;5.6;99.9;;;;;;;;;
2021/03/08 00:23:41;;;;;;;23.37;13.57;;;5.7;99.9;;;;;;;;;
2021/03/08 00:23:56;;;;;;;23.37;13.57;;;5.7;99.9;;;;;;;;;
2021/03/08 00:24:02;;;;;;;23.37;13.57;;;5.7;99.9;;;;;;;;;
2021/03/08 00:24:06;;;;;;;23.37;13.57;;;5.7;99.9;;;;;;;;;
2021/03/08 00:24:16;;;;;;;23.37;13.57;;;5.7;99.9;;;;;;;;;
2021/03/08 00:24:27;;;;;;;23.37;13.57;;;5.7;99.9;;;;;;;;;
2021/03/08 00:24:43;;;;;;;19.23;13.87;;;5.7;99.9;;;;;;;;;
2021/03/08 00:24:52;;;;;;;19.23;13.87;;;5.7;99.9;;;;;;;;;
2021/03/08 00:25:02;;;;;;;19.23;13.87;;;5.7;99.9;;;;;;;;;
2021/03/08 00:25:08;;;;;;;19.23;13.87;;;5.7;99.9;;;;;;;;;
2021/03/08 00:25:13;;;;;;;19.23;13.87;;;5.7;99.9;;;;;;;;;
2021/03/08 00:25:28;;;;;;;19.6;13.3;;;5.7;99.9;;;;;;;;;
2021/03/08 00:25:38;;;;;;;19.6;13.3;;;5.7;99.9;;;;;;;;;
2021/03/08 00:25:54;;;;;;;19.6;13.3;;;5.7;99.9;;;;;;;;;
2021/03/08 00:26:01;;;;;;;19.6;13.3;;;5.7;99.9;;;;;;;;;
2021/03/08 00:26:09;;;;;;;19.6;13.3;;;5.7;99.9;;;;;;;;;
2021/03/08 00:26:14;;;;;;;19.6;13.3;;;5.7;99.9;;;;;;;;;
2021/03/08 00:26:30;;;;;;;21.1;13.73;;;5.7;99.9;;;;;;;;;
2021/03/08 00:26:40;;;;;;;21.1;13.73;;;5.7;99.9;;;;;;;;;
2021/03/08 00:26:55;;;;;;;21.1;13.73;;;5.7;99.9;;;;;;;;;
2021/03/08 00:27:02;;;;;;;21.1;13.73;;;5.7;99.9;;;;;;;;;
2021/03/08 00:27:05;;;;;;;21.1;13.73;;;5.7;99.9;;;;;;;;;
2021/03/08 00:27:16;;;;;;;21.1;13.73;;;5.7;99.9;;;;;;;;;
2021/03/08 00:27:26;;;;;;;21.1;13.73;;;5.7;99.9;;;;;;;;;
2021/03/08 00:27:41;;;;;;;21.13;14.63;;;5.7;99.9;;;;;;;;;
2021/03/08 00:27:51;;;;;;;21.13;14.63;;;5.7;99.9;;;;;;;;;
2021/03/08 00:28:01;;;;;;;21.13;14.63;;;5.7;99.9;;;;;;;;;
2021/03/08 00:28:07;;;;;;;21.13;14.63;;;5.7;99.9;;;;;;;;;
2021/03/08 00:28:12;;;;;;;21.13;14.63;;;5.7;99.9;;;;;;;;;
2021/03/08 00:28:27;;;;;;;21.13;14.63;;;5.7;99.9;;;;;;;;;
2021/03/08 00:28:43;;;;;;;20.3;14.13;;;5.6;99.9;;;;;;;;;
2021/03/08 00:28:53;;;;;;;20.3;14.13;;;5.6;99.9;;;;;;;;;
2021/03/08 00:29:02;;;;;;;20.3;14.13;;;5.6;99.9;;;;;;;;;
2021/03/08 00:29:08;;;;;;;20.3;14.13;;;5.6;99.9;;;;;;;;;
2021/03/08 00:29:13;;;;;;;20.3;14.13;;;5.6;99.9;;;;;;;;;
2021/03/08 00:29:29;;;;;;;20.3;14.13;;;5.6;99.9;;;;;;;;;
2021/03/08 00:29:39;;;;;;;20.33;13.5;;;5.7;99.9;;;;;;;;;
2021/03/08 00:29:54;;;;;;;20.33;13.5;;;5.7;99.9;;;;;;;;;
2021/03/08 00:30:02;;;;;;;20.33;13.5;;;5.7;99.9;;;;;;;;;
2021/03/08 00:30:05;;;;;;;20.33;13.5;;;5.7;99.9;;;;;;;;;
2021/03/08 00:30:15;;;;;;;20.33;13.5;;;5.7;99.9;;;;;;;;;
2021/03/08 00:30:25;;;;;;;20.33;13.5;;;5.7;99.9;;;;;;;;;
2021/03/08 00:30:41;;;;;;;23.07;14.53;;;5.7;99.9;;;;;;;;;
2021/03/08 00:30:56;;;;;;;23.07;14.53;;;5.7;99.9;;;;;;;;;
2021/03/08 00:31:01;;;;;;;23.07;14.53;;;5.7;99.9;;;;;;;;;
2021/03/08 00:31:06;;;;;;;23.07;14.53;;;5.7;99.9;;;;;;;;;
2021/03/08 00:31:16;;;;;;;23.07;14.53;;;5.7;99.9;;;;;;;;;
2021/03/08 00:31:27;;;;;;;23.07;14.53;;;5.7;99.9;;;;;;;;;
2021/03/08 00:31:42;;;;;;;19.57;13.67;;;5.7;99.9;;;;;;;;;
2021/03/08 00:31:52;;;;;;;19.57;13.67;;;5.7;99.9;;;;;;;;;
2021/03/08 00:32:05;;;;;;;19.57;13.67;;;5.7;99.9;;;;;;;;;
2021/03/08 00:32:08;;;;;;;19.57;13.67;;;5.7;99.9;;;;;;;;;
2021/03/08 00:32:18;;;;;;;19.57;13.67;;;5.7;99.9;;;;;;;;;
2021/03/08 00:32:28;;;;;;;19.57;13.67;;;5.7;99.9;;;;;;;;;
2021/03/08 00:32:38;;;;;;;20.47;13.67;;;5.7;99.9;;;;;;;;;
2021/03/08 00:32:54;;;;;;;20.47;13.67;;;5.7;99.9;;;;;;;;;
2021/03/08 00:33:02;;;;;;;20.47;13.67;;;5.7;99.9;;;;;;;;;
2021/03/08 00:33:09;;;;;;;20.47;13.67;;;5.7;99.9;;;;;;;;;
2021/03/08 00:33:14;;;;;;;20.47;13.67;;;5.7;99.9;;;;;;;;;
2021/03/08 00:33:29;;;;;;;20.47;13.67;;;5.7;99.9;;;;;;;;;
2021/03/08 00:33:40;;;;;;;20.6;13.53;;;5.6;99.9;;;;;;;;;
2021/03/08 00:33:55;;;;;;;20.6;13.53;;;5.6;99.9;;;;;;;;;
2021/03/08 00:34:02;;;;;;;20.6;13.53;;;5.6;99.9;;;;;;;;;
2021/03/08 00:34:05;;;;;;;20.6;13.53;;;5.6;99.9;;;;;;;;;
2021/03/08 00:34:21;;;;;;;20.6;13.53;;;5.6;99.9;;;;;;;;;
2021/03/08 00:34:31;;;;;;;21.73;13.77;;;5.6;99.9;;;;;;;;;
2021/03/08 00:34:41;;;;;;;21.73;13.77;;;5.6;99.9;;;;;;;;;
2021/03/08 00:34:51;;;;;;;21.73;13.77;;;5.6;99.9;;;;;;;;;
2021/03/08 00:35:02;;;;;;;21.73;13.77;;;5.6;99.9;;;;;;;;;
2021/03/08 00:35:07;;;;;;;21.73;13.77;;;5.6;99.9;;;;;;;;;
2021/03/08 00:35:12;;;;;;;21.73;13.77;;;5.6;99.9;;;;;;;;;
2021/03/08 00:35:27;;;;;;;21.73;13.77;;;5.6;99.9;;;;;;;;;
2021/03/08 00:35:43;;;;;;;22.67;14.33;;;5.7;99.9;;;;;;;;;
2021/03/08 00:35:53;;;;;;;22.67;14.33;;;5.7;99.9;;;;;;;;;
2021/03/08 00:36:02;;;;;;;22.67;14.33;;;5.7;99.9;;;;;;;;;
2021/03/08 00:36:08;;;;;;;22.67;14.33;;;5.7;99.9;;;;;;;;;
2021/03/08 00:36:13;;;;;;;22.67;14.33;;;5.7;99.9;;;;;;;;;
2021/03/08 00:36:34;;;;;;;21.87;14.13;;;5.6;99.9;;;;;;;;;
2021/03/08 00:36:44;;;;;;;21.87;14.13;;;5.6;99.9;;;;;;;;;
2021/03/08 00:36:54;;;;;;;21.87;14.13;;;5.6;99.9;;;;;;;;;
2021/03/08 00:37:02;;;;;;;21.87;14.13;;;5.6;99.9;;;;;;;;;
2021/03/08 00:37:05;;;;;;;21.87;14.13;;;5.6;99.9;;;;;;;;;
2021/03/08 00:37:15;;;;;;;21.87;14.13;;;5.6;99.9;;;;;;;;;
2021/03/08 00:37:30;;;;;;;21.87;14.13;;;5.6;99.9;;;;;;;;;
2021/03/08 00:37:40;;;;;;;19.57;13.73;;;5.7;99.9;;;;;;;;;
2021/03/08 00:37:56;;;;;;;19.57;13.73;;;5.7;99.9;;;;;;;;;
2021/03/08 00:38:01;;;;;;;19.57;13.73;;;5.7;99.9;;;;;;;;;
2021/03/08 00:38:06;;;;;;;19.57;13.73;;;5.7;99.9;;;;;;;;;
2021/03/08 00:38:16;;;;;;;19.57;13.73;;;5.7;99.9;;;;;;;;;
2021/03/08 00:38:26;;;;;;;19.57;13.73;;;5.7;99.9;;;;;;;;;
2021/03/08 00:38:47;;;;;;;22.57;14.97;;;5.7;99.9;;;;;;;;;
2021/03/08 00:38:57;;;;;;;22.57;14.97;;;5.7;99.9;;;;;;;;;
2021/03/08 00:39:02;;;;;;;22.57;14.97;;;5.7;99.9;;;;;;;;;
2021/03/08 00:39:07;;;;;;;22.57;14.97;;;5.7;99.9;;;;;;;;;
2021/03/08 00:39:12;;;;;;;22.57;14.97;;;5.7;99.9;;;;;;;;;
2021/03/08 00:39:28;;;;;;;22.57;14.97;;;5.7;99.9;;;;;;;;;
2021/03/08 00:39:43;;;;;;;22.9;14.9;;;5.7;99.9;;;;;;;;;
2021/03/08 00:39:53;;;;;;;22.9;14.9;;;5.7;99.9;;;;;;;;;
2021/03/08 00:40:02;;;;;;;22.9;14.9;;;5.7;99.9;;;;;;;;;
2021/03/08 00:40:09;;;;;;;22.9;14.9;;;5.7;99.9;;;;;;;;;
2021/03/08 00:40:14;;;;;;;22.9;14.9;;;5.7;99.9;;;;;;;;;
2021/03/08 00:40:29;;;;;;;22.9;14.9;;;5.7;99.9;;;;;;;;;
2021/03/08 00:40:39;;;;;;;22.6;14.67;;;5.7;99.9;;;;;;;;;
2021/03/08 00:41:00;;;;;;;22.6;14.67;;;5.7;99.9;;;;;;;;;
2021/03/08 00:41:03;;;;;;;22.6;14.67;;;5.7;99.9;;;;;;;;;
2021/03/08 00:41:10;;;;;;;22.6;14.67;;;5.7;99.9;;;;;;;;;
2021/03/08 00:41:15;;;;;;;22.6;14.67;;;5.7;99.9;;;;;;;;;
2021/03/08 00:41:26;;;;;;;22.6;14.67;;;5.7;99.9;;;;;;;;;
2021/03/08 00:41:41;;;;;;;20.4;14.03;;;5.6;99.9;;;;;;;;;
2021/03/08 00:41:56;;;;;;;20.4;14.03;;;5.6;99.9;;;;;;;;;
2021/03/08 00:42:02;;;;;;;20.4;14.03;;;5.6;99.9;;;;;;;;;
2021/03/08 00:42:07;;;;;;;20.4;14.03;;;5.6;99.9;;;;;;;;;
2021/03/08 00:42:17;;;;;;;20.4;14.03;;;5.6;99.9;;;;;;;;;
2021/03/08 00:42:27;;;;;;;20.4;14.03;;;5.6;99.9;;;;;;;;;
2021/03/08 00:42:42;;;;;;;19.87;13.87;;;5.5;99.9;;;;;;;;;
2021/03/08 00:42:53;;;;;;;19.87;13.87;;;5.5;99.9;;;;;;;;;
2021/03/08 00:43:01;;;;;;;19.87;13.87;;;5.5;99.9;;;;;;;;;
2021/03/08 00:43:13;;;;;;;19.87;13.87;;;5.5;99.9;;;;;;;;;
2021/03/08 00:43:13;;;;;;;19.87;13.87;;;5.5;99.9;;;;;;;;;
2021/03/08 00:43:28;;;;;;;19.87;13.87;;;5.5;99.9;;;;;;;;;
2021/03/08 00:43:39;;;;;;;21.8;14.13;;;5.6;99.9;;;;;;;;;
2021/03/08 00:43:54;;;;;;;21.8;14.13;;;5.6;99.9;;;;;;;;;
2021/03/08 00:44:02;;;;;;;21.8;14.13;;;5.6;99.9;;;;;;;;;
2021/03/08 00:44:09;;;;;;;21.8;14.13;;;5.6;99.9;;;;;;;;;
2021/03/08 00:44:15;;;;;;;21.8;14.13;;;5.6;99.9;;;;;;;;;
2021/03/08 00:44:30;;;;;;;21.8;14.13;;;5.6;99.9;;;;;;;;;
2021/03/08 00:44:40;;;;;;;23.17;14.1;;;5.5;99.9;;;;;;;;;
2021/03/08 00:44:56;;;;;;;23.17;14.1;;;5.5;99.9;;;;;;;;;
2021/03/08 00:45:01;;;;;;;23.17;14.1;;;5.5;99.9;;;;;;;;;
2021/03/08 00:45:06;;;;;;;23.17;14.1;;;5.5;99.9;;;;;;;;;
2021/03/08 00:45:16;;;;;;;23.17;14.1;;;5.5;99.9;;;;;;;;;
2021/03/08 00:45:26;;;;;;;23.17;14.1;;;5.5;99.9;;;;;;;;;
2021/03/08 00:45:42;;;;;;;20.33;13.37;;;5.5;99.9;;;;;;;;;
2021/03/08 00:45:52;;;;;;;20.33;13.37;;;5.5;99.9;;;;;;;;;
2021/03/08 00:46:02;;;;;;;20.33;13.37;;;5.5;99.9;;;;;;;;;
2021/03/08 00:46:07;;;;;;;20.33;13.37;;;5.5;99.9;;;;;;;;;
2021/03/08 00:46:17;;;;;;;20.33;13.37;;;5.5;99.9;;;;;;;;;
2021/03/08 00:46:28;;;;;;;20.33;13.37;;;5.5;99.9;;;;;;;;;
2021/03/08 00:46:43;;;;;;;23.2;14.13;;;5.5;99.9;;;;;;;;;
2021/03/08 00:46:53;;;;;;;23.2;14.13;;;5.5;99.9;;;;;;;;;
2021/03/08 00:47:02;;;;;;;23.2;14.13;;;5.5;99.9;;;;;;;;;
2021/03/08 00:47:09;;;;;;;23.2;14.13;;;5.5;99.9;;;;;;;;;
2021/03/08 00:47:19;;;;;;;23.2;14.13;;;5.5;99.9;;;;;;;;;
2021/03/08 00:47:29;;;;;;;23.2;14.13;;;5.5;99.9;;;;;;;;;
2021/03/08 00:47:40;;;;;;;20;14;;;5.5;99.9;;;;;;;;;
2021/03/08 00:47:55;;;;;;;20;14;;;5.5;99.9;;;;;;;;;
2021/03/08 00:48:01;;;;;;;20;14;;;5.5;99.9;;;;;;;;;
2021/03/08 00:48:05;;;;;;;20;14;;;5.5;99.9;;;;;;;;;
2021/03/08 00:48:15;;;;;;;20;14;;;5.5;99.9;;;;;;;;;
2021/03/08 00:48:31;;;;;;;20;14;;;5.5;99.9;;;;;;;;;
2021/03/08 00:48:41;;;;;;;19.67;13.8;;;5.4;99.9;;;;;;;;;
2021/03/08 00:48:56;;;;;;;19.67;13.8;;;5.4;99.9;;;;;;;;;
2021/03/08 00:49:02;;;;;;;19.67;13.8;;;5.4;99.9;;;;;;;;;
2021/03/08 00:49:06;;;;;;;19.67;13.8;;;5.4;99.9;;;;;;;;;
2021/03/08 00:49:17;;;;;;;19.67;13.8;;;5.4;99.9;;;;;;;;;
2021/03/08 00:49:32;;;;;;;19.67;13.8;;;5.4;99.9;;;;;;;;;
2021/03/08 00:49:42;;;;;;;20.87;14.83;;;5.5;99.9;;;;;;;;;
2021/03/08 00:49:52;;;;;;;20.87;14.83;;;5.5;99.9;;;;;;;;;
2021/03/08 00:50:01;;;;;;;20.87;14.83;;;5.5;99.9;;;;;;;;;
2021/03/08 00:50:08;;;;;;;20.87;14.83;;;5.5;99.9;;;;;;;;;
2021/03/08 00:50:13;;;;;;;20.87;14.83;;;5.5;99.9;;;;;;;;;
2021/03/08 00:50:28;;;;;;;20.87;14.83;;;5.5;99.9;;;;;;;;;
2021/03/08 00:50:44;;;;;;;22.7;14.8;;;5.4;99.9;;;;;;;;;
2021/03/08 00:50:54;;;;;;;22.7;14.8;;;5.4;99.9;;;;;;;;;
2021/03/08 00:51:02;;;;;;;22.7;14.8;;;5.4;99.9;;;;;;;;;
2021/03/08 00:51:09;;;;;;;22.7;14.8;;;5.4;99.9;;;;;;;;;
2021/03/08 00:51:14;;;;;;;22.7;14.8;;;5.4;99.9;;;;;;;;;
2021/03/08 00:51:30;;;;;;;22.7;14.8;;;5.4;99.9;;;;;;;;;
2021/03/08 00:51:45;;;;;;;21.3;15.4;;;5.5;99.9;;;;;;;;;
2021/03/08 00:51:55;;;;;;;21.3;15.4;;;5.5;99.9;;;;;;;;;
2021/03/08 00:52:02;;;;;;;21.3;15.4;;;5.5;99.9;;;;;;;;;
2021/03/08 00:52:06;;;;;;;21.3;15.4;;;5.5;99.9;;;;;;;;;
2021/03/08 00:52:16;;;;;;;21.3;15.4;;;5.5;99.9;;;;;;;;;
2021/03/08 00:52:26;;;;;;;21.3;15.4;;;5.5;99.9;;;;;;;;;
2021/03/08 00:52:41;;;;;;;21.03;13.83;;;5.5;99.9;;;;;;;;;
2021/03/08 00:52:57;;;;;;;21.03;13.83;;;5.5;99.9;;;;;;;;;
2021/03/08 00:53:02;;;;;;;21.03;13.83;;;5.5;99.9;;;;;;;;;
2021/03/08 00:53:07;;;;;;;21.03;13.83;;;5.5;99.9;;;;;;;;;
2021/03/08 00:53:12;;;;;;;21.03;13.83;;;5.5;99.9;;;;;;;;;
2021/03/08 00:53:28;;;;;;;21.03;13.83;;;5.5;99.9;;;;;;;;;
2021/03/08 00:53:43;;;;;;;18.8;13.67;;;5.4;99.9;;;;;;;;;
2021/03/08 00:53:58;;;;;;;18.8;13.67;;;5.4;99.9;;;;;;;;;
2021/03/08 00:54:02;;;;;;;18.8;13.67;;;5.4;99.9;;;;;;;;;
2021/03/08 00:54:09;;;;;;;18.8;13.67;;;5.4;99.9;;;;;;;;;
2021/03/08 00:54:14;;;;;;;18.8;13.67;;;5.4;99.9;;;;;;;;;
2021/03/08 00:54:29;;;;;;;18.8;13.67;;;5.4;99.9;;;;;;;;;
2021/03/08 00:54:39;;;;;;;21.17;14.43;;;5.4;99.9;;;;;;;;;
2021/03/08 00:54:55;;;;;;;21.17;14.43;;;5.4;99.9;;;;;;;;;
2021/03/08 00:55:01;;;;;;;21.17;14.43;;;5.4;99.9;;;;;;;;;
2021/03/08 00:55:10;;;;;;;21.17;14.43;;;5.4;99.9;;;;;;;;;
2021/03/08 00:55:15;;;;;;;21.17;14.43;;;5.4;99.9;;;;;;;;;
2021/03/08 00:55:25;;;;;;;21.17;14.43;;;5.4;99.9;;;;;;;;;
2021/03/08 00:55:41;;;;;;;22.17;14.23;;;5.4;99.9;;;;;;;;;
2021/03/08 00:55:56;;;;;;;22.17;14.23;;;5.4;99.9;;;;;;;;;
2021/03/08 00:56:02;;;;;;;22.17;14.23;;;5.4;99.9;;;;;;;;;
2021/03/08 00:56:11;;;;;;;22.17;14.23;;;5.4;99.9;;;;;;;;;
2021/03/08 00:56:16;;;;;;;22.17;14.23;;;5.4;99.9;;;;;;;;;
2021/03/08 00:56:27;;;;;;;22.17;14.23;;;5.4;99.9;;;;;;;;;
2021/03/08 00:56:42;;;;;;;19.77;13.7;;;5.5;99.9;;;;;;;;;
2021/03/08 00:56:53;;;;;;;19.77;13.7;;;5.5;99.9;;;;;;;;;
2021/03/08 00:57:02;;;;;;;19.77;13.7;;;5.5;99.9;;;;;;;;;
2021/03/08 00:57:08;;;;;;;19.77;13.7;;;5.5;99.9;;;;;;;;;
2021/03/08 00:57:13;;;;;;;19.77;13.7;;;5.5;99.9;;;;;;;;;
2021/03/08 00:57:28;;;;;;;19.77;13.7;;;5.5;99.9;;;;;;;;;
2021/03/08 00:57:38;;;;;;;23.33;15.27;;;5.4;99.9;;;;;;;;;
2021/03/08 00:57:54;;;;;;;23.33;15.27;;;5.4;99.9;;;;;;;;;
2021/03/08 00:58:02;;;;;;;23.33;15.27;;;5.4;99.9;;;;;;;;;
2021/03/08 00:58:09;;;;;;;23.33;15.27;;;5.4;99.9;;;;;;;;;
2021/03/08 00:58:14;;;;;;;23.33;15.27;;;5.4;99.9;;;;;;;;;
2021/03/08 00:58:30;;;;;;;23.33;15.27;;;5.4;99.9;;;;;;;;;
2021/03/08 00:58:40;;;;;;;20.23;15;;;5.4;99.9;;;;;;;;;
2021/03/08 00:58:55;;;;;;;20.23;15;;;5.4;99.9;;;;;;;;;
2021/03/08 00:59:02;;;;;;;20.23;15;;;5.4;99.9;;;;;;;;;
2021/03/08 00:59:05;;;;;;;20.23;15;;;5.4;99.9;;;;;;;;;
2021/03/08 00:59:16;;;;;;;20.23;15;;;5.4;99.9;;;;;;;;;
2021/03/08 00:59:26;;;;;;;20.23;15;;;5.4;99.9;;;;;;;;;
2021/03/08 00:59:41;;;;;;;19.63;14.47;;;5.4;99.9;;;;;;;;;
2021/03/08 00:59:52;;;;;;;19.63;14.47;;;5.4;99.9;;;;;;;;;
2021/03/08 01:00:01;;;;;;;19.63;14.47;;;5.4;99.9;;;;;;;;;
2021/03/08 01:00:07;;;;;;;19.63;14.47;;;5.4;99.9;;;;;;;;;
2021/03/08 01:00:12;;;;;;;19.63;14.47;;;5.4;99.9;;;;;;;;;
2021/03/08 01:00:27;;;;;;;19.63;14.47;;;5.4;99.9;;;;;;;;;
2021/03/08 01:00:43;;;;;;;21.23;14.07;;;5.5;99.9;;;;;;;;;
2021/03/08 01:00:53;;;;;;;21.23;14.07;;;5.5;99.9;;;;;;;;;
2021/03/08 01:01:02;;;;;;;21.23;14.07;;;5.5;99.9;;;;;;;;;
2021/03/08 01:01:08;;;;;;;21.23;14.07;;;5.5;99.9;;;;;;;;;
2021/03/08 01:01:13;;;;;;;21.23;14.07;;;5.5;99.9;;;;;;;;;
2021/03/08 01:01:29;;;;;;;21.23;14.07;;;5.5;99.9;;;;;;;;;
2021/03/08 01:01:39;;;;;;;23.2;14.67;;;5.5;99.9;;;;;;;;;
2021/03/08 01:01:54;;;;;;;23.2;14.67;;;5.5;99.9;;;;;;;;;
2021/03/08 01:02:02;;;;;;;23.2;14.67;;;5.5;99.9;;;;;;;;;
2021/03/08 01:02:05;;;;;;;23.2;14.67;;;5.5;99.9;;;;;;;;;
2021/03/08 01:02:15;;;;;;;23.2;14.67;;;5.5;99.9;;;;;;;;;
2021/03/08 01:02:25;;;;;;;23.2;14.67;;;5.5;99.9;;;;;;;;;
2021/03/08 01:02:40;;;;;;;22.27;13.4;;;5.5;99.9;;;;;;;;;
2021/03/08 01:02:56;;;;;;;22.27;13.4;;;5.5;99.9;;;;;;;;;
2021/03/08 01:03:02;;;;;;;22.27;13.4;;;5.5;99.9;;;;;;;;;
2021/03/08 01:03:06;;;;;;;22.27;13.4;;;5.5;99.9;;;;;;;;;
2021/03/08 01:03:16;;;;;;;22.27;13.4;;;5.5;99.9;;;;;;;;;
2021/03/08 01:03:27;;;;;;;22.27;13.4;;;5.5;99.9;;;;;;;;;
2021/03/08 01:03:42;;;;;;;20.5;14.57;;;5.5;99.9;;;;;;;;;
2021/03/08 01:03:52;;;;;;;20.5;14.57;;;5.5;99.9;;;;;;;;;
2021/03/08 01:04:02;;;;;;;20.5;14.57;;;5.5;99.9;;;;;;;;;
2021/03/08 01:04:08;;;;;;;20.5;14.57;;;5.5;99.9;;;;;;;;;
2021/03/08 01:04:18;;;;;;;20.5;14.57;;;5.5;99.9;;;;;;;;;
2021/03/08 01:04:28;;;;;;;20.5;14.57;;;5.5;99.9;;;;;;;;;
2021/03/08 01:04:38;;;;;;;20.5;14.57;;;5.5;99.9;;;;;;;;;
2021/03/08 01:04:54;;;;;;;22.67;14.03;;;5.5;99.9;;;;;;;;;
2021/03/08 01:05:01;;;;;;;22.67;14.03;;;5.5;99.9;;;;;;;;;
2021/03/08 01:05:09;;;;;;;22.67;14.03;;;5.5;99.9;;;;;;;;;
2021/03/08 01:05:15;;;;;;;22.67;14.03;;;5.5;99.9;;;;;;;;;
2021/03/08 01:05:29;;;;;;;22.67;14.03;;;5.5;99.9;;;;;;;;;
2021/03/08 01:05:40;;;;;;;22.67;14.03;;;5.5;99.9;;;;;;;;;
2021/03/08 01:05:55;;;;;;;25.1;14.2;;;5.5;99.9;;;;;;;;;
2021/03/08 01:06:02;;;;;;;25.1;14.2;;;5.5;99.9;;;;;;;;;
2021/03/08 01:06:05;;;;;;;25.1;14.2;;;5.5;99.9;;;;;;;;;
2021/03/08 01:06:15;;;;;;;25.1;14.2;;;5.5;99.9;;;;;;;;;
2021/03/08 01:06:31;;;;;;;25.1;14.2;;;5.5;99.9;;;;;;;;;
2021/03/08 01:06:41;;;;;;;22.5;15.23;;;5.4;99.9;;;;;;;;;
2021/03/08 01:06:51;;;;;;;22.5;15.23;;;5.4;99.9;;;;;;;;;
2021/03/08 01:07:02;;;;;;;22.5;15.23;;;5.4;99.9;;;;;;;;;
2021/03/08 01:07:07;;;;;;;22.5;15.23;;;5.4;99.9;;;;;;;;;
2021/03/08 01:07:12;;;;;;;22.5;15.23;;;5.4;99.9;;;;;;;;;
2021/03/08 01:07:27;;;;;;;22.5;15.23;;;5.4;99.9;;;;;;;;;
2021/03/08 01:07:42;;;;;;;22.77;14.2;;;5.3;99.9;;;;;;;;;
2021/03/08 01:07:53;;;;;;;22.77;14.2;;;5.3;99.9;;;;;;;;;
2021/03/08 01:08:02;;;;;;;22.77;14.2;;;5.3;99.9;;;;;;;;;
2021/03/08 01:08:08;;;;;;;22.77;14.2;;;5.3;99.9;;;;;;;;;
2021/03/08 01:08:13;;;;;;;22.77;14.2;;;5.3;99.9;;;;;;;;;
2021/03/08 01:08:29;;;;;;;22.77;14.2;;;5.3;99.9;;;;;;;;;
2021/03/08 01:08:44;;;;;;;24.13;14.43;;;5.3;99.9;;;;;;;;;
2021/03/08 01:08:54;;;;;;;24.13;14.43;;;5.3;99.9;;;;;;;;;
2021/03/08 01:09:02;;;;;;;24.13;14.43;;;5.3;99.9;;;;;;;;;
2021/03/08 01:09:04;;;;;;;24.13;14.43;;;5.3;99.9;;;;;;;;;
2021/03/08 01:09:15;;;;;;;24.13;14.43;;;5.3;99.9;;;;;;;;;
2021/03/08 01:09:25;;;;;;;24.13;14.43;;;5.3;99.9;;;;;;;;;
2021/03/08 01:09:40;;;;;;;24.13;14.43;;;5.3;99.9;;;;;;;;;
2021/03/08 01:09:56;;;;;;;20.47;13.7;;;5.3;99.9;;;;;;;;;
2021/03/08 01:10:01;;;;;;;20.47;13.7;;;5.3;99.9;;;;;;;;;
2021/03/08 01:10:06;;;;;;;20.47;13.7;;;5.3;99.9;;;;;;;;;
2021/03/08 01:10:16;;;;;;;20.47;13.7;;;5.3;99.9;;;;;;;;;
2021/03/08 01:10:27;;;;;;;20.47;13.7;;;5.3;99.9;;;;;;;;;
2021/03/08 01:10:42;;;;;;;23.33;14;;;5.3;99.9;;;;;;;;;
2021/03/08 01:10:57;;;;;;;23.33;14;;;5.3;99.9;;;;;;;;;
2021/03/08 01:11:02;;;;;;;23.33;14;;;5.3;99.9;;;;;;;;;
2021/03/08 01:11:07;;;;;;;23.33;14;;;5.3;99.9;;;;;;;;;
2021/03/08 01:11:18;;;;;;;23.33;14;;;5.3;99.9;;;;;;;;;
2021/03/08 01:11:28;;;;;;;23.33;14;;;5.3;99.9;;;;;;;;;
2021/03/08 01:11:38;;;;;;;23.33;14;;;5.3;99.9;;;;;;;;;
2021/03/08 01:11:53;;;;;;;22.6;14.93;;;5.3;99.9;;;;;;;;;
2021/03/08 01:12:02;;;;;;;22.6;14.93;;;5.3;99.9;;;;;;;;;
2021/03/08 01:12:09;;;;;;;22.6;14.93;;;5.3;99.9;;;;;;;;;
2021/03/08 01:12:19;;;;;;;22.6;14.93;;;5.3;99.9;;;;;;;;;
2021/03/08 01:12:29;;;;;;;22.6;14.93;;;5.3;99.9;;;;;;;;;
2021/03/08 01:12:40;;;;;;;22.6;14.93;;;5.3;99.9;;;;;;;;;
2021/03/08 01:12:55;;;;;;;21.2;14.43;;;5.3;99.9;;;;;;;;;
2021/03/08 01:13:02;;;;;;;21.2;14.43;;;5.3;99.9;;;;;;;;;
2021/03/08 01:13:10;;;;;;;21.2;14.43;;;5.3;99.9;;;;;;;;;
2021/03/08 01:13:15;;;;;;;21.2;14.43;;;5.3;99.9;;;;;;;;;
2021/03/08 01:13:31;;;;;;;21.2;14.43;;;5.3;99.9;;;;;;;;;
2021/03/08 01:13:41;;;;;;;21.2;14.43;;;5.3;99.9;;;;;;;;;
2021/03/08 01:13:51;;;;;;;20.77;14.37;;;5.3;99.9;;;;;;;;;
2021/03/08 01:14:02;;;;;;;20.77;14.37;;;5.3;99.9;;;;;;;;;
2021/03/08 01:14:06;;;;;;;20.77;14.37;;;5.3;99.9;;;;;;;;;
2021/03/08 01:14:17;;;;;;;20.77;14.37;;;5.3;99.9;;;;;;;;;
2021/03/08 01:14:32;;;;;;;20.77;14.37;;;5.3;99.9;;;;;;;;;
2021/03/08 01:14:42;;;;;;;20.77;14.37;;;5.3;99.9;;;;;;;;;
2021/03/08 01:14:53;;;;;;;23.1;15.5;;;5.2;99.9;;;;;;;;;
2021/03/08 01:15:02;;;;;;;23.1;15.5;;;5.2;99.9;;;;;;;;;
2021/03/08 01:15:08;;;;;;;23.1;15.5;;;5.2;99.9;;;;;;;;;